sensor_id;sensor_type;location;lat;lon;timestamp;temperature;humidity
19799;DHT22;10059;59.850;10.454;2022-10-17T00:00:28;4.50;99.90
19799;DHT22;10059;59.850;10.454;2022-10-17T00:02:57;4.40;99.90
19799;DHT22;10059;59.850;10.454;2022-10-17T00:05:24;4.50;99.90
19799;DHT22;10059;59.850;10.454;2022-10-17T00:07:51;4.60;99.90
19799;DHT22;10059;59.850;10.454;2022-10-17T00:10:18;4.60;99.90
19799;DHT22;10059;59.850;10.454;2022-10-17T00:12:45;4.70;99.90
19799;DHT22;10059;59.850;10.454;2022-10-17T00:15:15;4.90;99.90
19799;DHT22;10059;59.850;10.454;2022-10-17T00:17:42;4.90;99.90
19799;DHT22;10059;59.850;10.454;2022-10-17T00:20:11;5.10;99.90
19799;DHT22;10059;59.850;10.454;2022-10-17T00:22:38;5.10;99.90
19799;DHT22;10059;59.850;10.454;2022-10-17T00:25:06;5.10;99.90
19799;DHT22;10059;59.850;10.454;2022-10-17T00:27:34;5.10;99.90
19799;DHT22;10059;59.850;10.454;2022-10-17T00:30:01;5.10;99.90
19799;DHT22;10059;59.850;10.454;2022-10-17T00:32:28;5.10;99.90
19799;DHT22;10059;59.850;10.454;2022-10-17T00:34:56;5.10;99.90
19799;DHT22;10059;59.850;10.454;2022-10-17T00:37:24;5.00;99.90
19799;DHT22;10059;59.850;10.454;2022-10-17T00:39:52;4.90;99.90
19799;DHT22;10059;59.850;10.454;2022-10-17T00:42:19;4.70;99.90
19799;DHT22;10059;59.850;10.454;2022-10-17T00:47:44;4.50;99.90
19799;DHT22;10059;59.850;10.454;2022-10-17T00:50:12;4.50;99.90
19799;DHT22;10059;59.850;10.454;2022-10-17T00:52:40;4.60;99.90
19799;DHT22;10059;59.850;10.454;2022-10-17T00:55:11;4.60;99.90
19799;DHT22;10059;59.850;10.454;2022-10-17T00:57:40;4.50;99.90
19799;DHT22;10059;59.850;10.454;2022-10-17T01:00:09;4.50;99.90
19799;DHT22;10059;59.850;10.454;2022-10-17T01:02:36;4.50;99.90
19799;DHT22;10059;59.850;10.454;2022-10-17T01:05:05;4.40;99.90
19799;DHT22;10059;59.850;10.454;2022-10-17T01:07:33;4.40;99.90
19799;DHT22;10059;59.850;10.454;2022-10-17T01:10:02;4.20;99.90
19799;DHT22;10059;59.850;10.454;2022-10-17T01:12:36;4.10;99.90
19799;DHT22;10059;59.850;10.454;2022-10-17T01:15:11;4.00;99.90
19799;DHT22;10059;59.850;10.454;2022-10-17T01:17:50;3.90;99.90
19799;DHT22;10059;59.850;10.454;2022-10-17T01:20:49;3.80;99.90
19799;DHT22;10059;59.850;10.454;2022-10-17T01:23:30;3.80;99.90
19799;DHT22;10059;59.850;10.454;2022-10-17T01:26:08;3.70;99.90
19799;DHT22;10059;59.850;10.454;2022-10-17T01:29:07;3.70;99.90
19799;DHT22;10059;59.850;10.454;2022-10-17T01:31:42;3.70;99.90
19799;DHT22;10059;59.850;10.454;2022-10-17T01:34:16;3.80;99.90
19799;DHT22;10059;59.850;10.454;2022-10-17T01:36:48;3.90;99.90
19799;DHT22;10059;59.850;10.454;2022-10-17T01:39:21;4.10;99.90
19799;DHT22;10059;59.850;10.454;2022-10-17T01:41:55;4.30;99.90
19799;DHT22;10059;59.850;10.454;2022-10-17T01:44:28;4.40;99.90
19799;DHT22;10059;59.850;10.454;2022-10-17T01:47:02;4.50;99.90
19799;DHT22;10059;59.850;10.454;2022-10-17T01:49:31;4.50;99.90
19799;DHT22;10059;59.850;10.454;2022-10-17T01:52:02;4.60;99.90
19799;DHT22;10059;59.850;10.454;2022-10-17T01:54:32;4.30;99.90
19799;DHT22;10059;59.850;10.454;2022-10-17T01:57:05;4.10;99.90
19799;DHT22;10059;59.850;10.454;2022-10-17T01:59:37;4.00;99.90
19799;DHT22;10059;59.850;10.454;2022-10-17T02:02:07;3.90;99.90
19799;DHT22;10059;59.850;10.454;2022-10-17T02:04:35;3.80;99.90
19799;DHT22;10059;59.850;10.454;2022-10-17T02:07:06;3.80;99.90
19799;DHT22;10059;59.850;10.454;2022-10-17T02:09:33;3.80;99.90
19799;DHT22;10059;59.850;10.454;2022-10-17T02:12:19;3.80;99.90
19799;DHT22;10059;59.850;10.454;2022-10-17T02:15:00;3.80;99.90
19799;DHT22;10059;59.850;10.454;2022-10-17T02:17:40;3.80;99.90
19799;DHT22;10059;59.850;10.454;2022-10-17T02:20:16;3.90;99.90
19799;DHT22;10059;59.850;10.454;2022-10-17T02:22:51;3.90;99.90
19799;DHT22;10059;59.850;10.454;2022-10-17T02:25:26;4.00;99.90
19799;DHT22;10059;59.850;10.454;2022-10-17T02:27:59;4.00;99.90
19799;DHT22;10059;59.850;10.454;2022-10-17T02:30:32;4.00;99.90
19799;DHT22;10059;59.850;10.454;2022-10-17T02:33:04;4.00;99.90
19799;DHT22;10059;59.850;10.454;2022-10-17T02:35:35;4.00;99.90
19799;DHT22;10059;59.850;10.454;2022-10-17T02:38:04;4.00;99.90
19799;DHT22;10059;59.850;10.454;2022-10-17T02:40:32;4.00;99.90
19799;DHT22;10059;59.850;10.454;2022-10-17T02:43:00;4.10;99.90
19799;DHT22;10059;59.850;10.454;2022-10-17T02:45:28;4.20;99.90
19799;DHT22;10059;59.850;10.454;2022-10-17T02:48:02;4.20;99.90
19799;DHT22;10059;59.850;10.454;2022-10-17T02:50:37;4.30;99.90
19799;DHT22;10059;59.850;10.454;2022-10-17T02:53:10;4.20;99.90
19799;DHT22;10059;59.850;10.454;2022-10-17T02:55:42;4.20;99.90
19799;DHT22;10059;59.850;10.454;2022-10-17T02:58:17;4.10;99.90
19799;DHT22;10059;59.850;10.454;2022-10-17T03:00:45;4.10;99.90
19799;DHT22;10059;59.850;10.454;2022-10-17T03:03:22;4.10;99.90
19799;DHT22;10059;59.850;10.454;2022-10-17T03:05:49;4.00;99.90
19799;DHT22;10059;59.850;10.454;2022-10-17T03:08:16;4.00;99.90
19799;DHT22;10059;59.850;10.454;2022-10-17T03:10:43;3.80;99.90
19799;DHT22;10059;59.850;10.454;2022-10-17T03:13:10;3.80;99.90
19799;DHT22;10059;59.850;10.454;2022-10-17T03:15:37;3.80;99.90
19799;DHT22;10059;59.850;10.454;2022-10-17T03:18:04;3.90;99.90
19799;DHT22;10059;59.850;10.454;2022-10-17T03:20:32;3.90;99.90
19799;DHT22;10059;59.850;10.454;2022-10-17T03:22:59;3.70;99.90
19799;DHT22;10059;59.850;10.454;2022-10-17T03:25:26;3.80;99.90
19799;DHT22;10059;59.850;10.454;2022-10-17T03:27:53;3.60;99.90
19799;DHT22;10059;59.850;10.454;2022-10-17T03:30:20;3.80;99.90
19799;DHT22;10059;59.850;10.454;2022-10-17T03:32:47;3.80;99.90
19799;DHT22;10059;59.850;10.454;2022-10-17T03:35:14;3.80;99.90
19799;DHT22;10059;59.850;10.454;2022-10-17T03:37:42;3.80;99.90
19799;DHT22;10059;59.850;10.454;2022-10-17T03:40:10;3.90;99.90
19799;DHT22;10059;59.850;10.454;2022-10-17T03:42:37;4.00;99.90
19799;DHT22;10059;59.850;10.454;2022-10-17T03:45:04;4.20;99.90
19799;DHT22;10059;59.850;10.454;2022-10-17T03:47:31;4.40;99.90
19799;DHT22;10059;59.850;10.454;2022-10-17T03:49:58;4.50;99.90
19799;DHT22;10059;59.850;10.454;2022-10-17T03:52:25;4.60;99.90
19799;DHT22;10059;59.850;10.454;2022-10-17T03:54:53;4.70;99.90
19799;DHT22;10059;59.850;10.454;2022-10-17T03:57:20;4.80;99.90
19799;DHT22;10059;59.850;10.454;2022-10-17T03:59:49;4.80;99.90
19799;DHT22;10059;59.850;10.454;2022-10-17T04:02:16;4.80;99.90
19799;DHT22;10059;59.850;10.454;2022-10-17T04:04:43;4.70;99.90
19799;DHT22;10059;59.850;10.454;2022-10-17T04:07:10;4.70;99.90
19799;DHT22;10059;59.850;10.454;2022-10-17T04:09:37;4.70;99.90
19799;DHT22;10059;59.850;10.454;2022-10-17T04:12:05;4.70;99.90
19799;DHT22;10059;59.850;10.454;2022-10-17T04:14:32;4.60;99.90
19799;DHT22;10059;59.850;10.454;2022-10-17T04:16:59;4.60;99.90
19799;DHT22;10059;59.850;10.454;2022-10-17T04:19:26;4.60;99.90
19799;DHT22;10059;59.850;10.454;2022-10-17T04:21:53;4.70;99.90
19799;DHT22;10059;59.850;10.454;2022-10-17T04:24:20;4.50;99.90
19799;DHT22;10059;59.850;10.454;2022-10-17T04:26:49;4.20;99.90
19799;DHT22;10059;59.850;10.454;2022-10-17T04:29:18;3.90;99.90
19799;DHT22;10059;59.850;10.454;2022-10-17T04:31:44;4.00;99.90
19799;DHT22;10059;59.850;10.454;2022-10-17T04:34:11;4.00;99.90
19799;DHT22;10059;59.850;10.454;2022-10-17T04:36:39;4.10;99.90
19799;DHT22;10059;59.850;10.454;2022-10-17T04:39:06;4.20;99.90
19799;DHT22;10059;59.850;10.454;2022-10-17T04:41:34;4.20;99.90
19799;DHT22;10059;59.850;10.454;2022-10-17T04:44:00;4.10;99.90
19799;DHT22;10059;59.850;10.454;2022-10-17T04:46:29;4.10;99.90
19799;DHT22;10059;59.850;10.454;2022-10-17T04:48:56;4.00;99.90
19799;DHT22;10059;59.850;10.454;2022-10-17T04:51:23;3.90;99.90
19799;DHT22;10059;59.850;10.454;2022-10-17T04:53:50;3.80;99.90
19799;DHT22;10059;59.850;10.454;2022-10-17T04:56:18;3.90;99.90
19799;DHT22;10059;59.850;10.454;2022-10-17T04:58:46;3.80;99.90
19799;DHT22;10059;59.850;10.454;2022-10-17T05:01:15;3.90;99.90
19799;DHT22;10059;59.850;10.454;2022-10-17T05:03:44;4.00;99.90
19799;DHT22;10059;59.850;10.454;2022-10-17T05:06:13;4.00;99.90
19799;DHT22;10059;59.850;10.454;2022-10-17T05:08:40;4.00;99.90
19799;DHT22;10059;59.850;10.454;2022-10-17T05:11:18;3.80;99.90
19799;DHT22;10059;59.850;10.454;2022-10-17T05:13:49;3.80;99.90
19799;DHT22;10059;59.850;10.454;2022-10-17T05:16:16;3.90;99.90
19799;DHT22;10059;59.850;10.454;2022-10-17T05:18:47;4.00;99.90
19799;DHT22;10059;59.850;10.454;2022-10-17T05:21:14;4.00;99.90
19799;DHT22;10059;59.850;10.454;2022-10-17T05:23:41;4.10;99.90
19799;DHT22;10059;59.850;10.454;2022-10-17T05:26:08;4.00;99.90
19799;DHT22;10059;59.850;10.454;2022-10-17T05:28:35;3.90;99.90
19799;DHT22;10059;59.850;10.454;2022-10-17T05:31:03;4.00;99.90
19799;DHT22;10059;59.850;10.454;2022-10-17T05:33:30;4.10;99.90
19799;DHT22;10059;59.850;10.454;2022-10-17T05:35:58;4.30;99.90
19799;DHT22;10059;59.850;10.454;2022-10-17T05:38:26;4.20;99.90
19799;DHT22;10059;59.850;10.454;2022-10-17T05:40:56;4.20;99.90
19799;DHT22;10059;59.850;10.454;2022-10-17T05:43:24;4.10;99.90
19799;DHT22;10059;59.850;10.454;2022-10-17T05:45:51;4.10;99.90
19799;DHT22;10059;59.850;10.454;2022-10-17T05:48:18;4.10;99.90
19799;DHT22;10059;59.850;10.454;2022-10-17T05:50:44;4.10;99.90
19799;DHT22;10059;59.850;10.454;2022-10-17T05:53:13;4.30;99.90
19799;DHT22;10059;59.850;10.454;2022-10-17T05:55:40;4.20;99.90
19799;DHT22;10059;59.850;10.454;2022-10-17T05:58:07;4.20;99.90
19799;DHT22;10059;59.850;10.454;2022-10-17T06:00:34;4.00;99.90
19799;DHT22;10059;59.850;10.454;2022-10-17T06:03:01;4.00;99.90
19799;DHT22;10059;59.850;10.454;2022-10-17T06:05:27;4.00;99.90
19799;DHT22;10059;59.850;10.454;2022-10-17T06:07:55;4.10;99.90
19799;DHT22;10059;59.850;10.454;2022-10-17T06:10:24;4.50;99.90
19799;DHT22;10059;59.850;10.454;2022-10-17T06:12:51;4.40;99.90
19799;DHT22;10059;59.850;10.454;2022-10-17T06:15:17;4.40;99.90
19799;DHT22;10059;59.850;10.454;2022-10-17T06:17:44;4.50;99.90
19799;DHT22;10059;59.850;10.454;2022-10-17T06:20:12;4.80;99.90
19799;DHT22;10059;59.850;10.454;2022-10-17T06:22:38;5.30;99.90
19799;DHT22;10059;59.850;10.454;2022-10-17T06:25:06;5.50;99.90
19799;DHT22;10059;59.850;10.454;2022-10-17T06:27:34;5.70;99.90
19799;DHT22;10059;59.850;10.454;2022-10-17T06:30:01;5.60;99.90
19799;DHT22;10059;59.850;10.454;2022-10-17T06:32:29;5.60;99.90
19799;DHT22;10059;59.850;10.454;2022-10-17T06:34:56;5.60;99.90
19799;DHT22;10059;59.850;10.454;2022-10-17T06:37:22;5.50;99.90
19799;DHT22;10059;59.850;10.454;2022-10-17T06:39:49;5.70;99.90
19799;DHT22;10059;59.850;10.454;2022-10-17T06:42:16;5.70;99.90
19799;DHT22;10059;59.850;10.454;2022-10-17T06:44:44;6.10;99.90
19799;DHT22;10059;59.850;10.454;2022-10-17T06:47:11;6.00;99.90
19799;DHT22;10059;59.850;10.454;2022-10-17T06:49:38;5.90;99.90
19799;DHT22;10059;59.850;10.454;2022-10-17T06:52:05;5.80;99.90
19799;DHT22;10059;59.850;10.454;2022-10-17T06:54:32;6.10;99.90
19799;DHT22;10059;59.850;10.454;2022-10-17T06:56:59;6.10;99.90
19799;DHT22;10059;59.850;10.454;2022-10-17T06:59:26;6.20;99.90
19799;DHT22;10059;59.850;10.454;2022-10-17T07:01:54;5.90;99.90
19799;DHT22;10059;59.850;10.454;2022-10-17T07:04:21;6.00;99.90
19799;DHT22;10059;59.850;10.454;2022-10-17T07:06:48;6.20;99.90
19799;DHT22;10059;59.850;10.454;2022-10-17T07:09:15;6.20;99.90
19799;DHT22;10059;59.850;10.454;2022-10-17T07:11:41;6.30;99.90
19799;DHT22;10059;59.850;10.454;2022-10-17T07:14:08;6.30;99.90
19799;DHT22;10059;59.850;10.454;2022-10-17T07:16:36;6.30;99.90
19799;DHT22;10059;59.850;10.454;2022-10-17T07:19:04;6.10;99.90
19799;DHT22;10059;59.850;10.454;2022-10-17T07:21:31;6.10;99.90
19799;DHT22;10059;59.850;10.454;2022-10-17T07:23:58;6.00;99.90
19799;DHT22;10059;59.850;10.454;2022-10-17T07:26:25;6.20;99.90
19799;DHT22;10059;59.850;10.454;2022-10-17T07:28:53;6.20;99.90
19799;DHT22;10059;59.850;10.454;2022-10-17T07:31:21;6.10;99.90
19799;DHT22;10059;59.850;10.454;2022-10-17T07:33:48;6.00;99.90
19799;DHT22;10059;59.850;10.454;2022-10-17T07:36:17;6.20;99.90
19799;DHT22;10059;59.850;10.454;2022-10-17T07:38:44;6.30;99.90
19799;DHT22;10059;59.850;10.454;2022-10-17T07:41:11;6.40;99.90
19799;DHT22;10059;59.850;10.454;2022-10-17T07:43:38;6.10;99.90
19799;DHT22;10059;59.850;10.454;2022-10-17T07:46:07;6.10;99.90
19799;DHT22;10059;59.850;10.454;2022-10-17T07:48:36;6.20;99.90
19799;DHT22;10059;59.850;10.454;2022-10-17T07:51:05;6.10;99.90
19799;DHT22;10059;59.850;10.454;2022-10-17T07:53:37;6.00;99.90
19799;DHT22;10059;59.850;10.454;2022-10-17T07:56:06;6.00;99.90
19799;DHT22;10059;59.850;10.454;2022-10-17T07:58:34;6.20;99.90
19799;DHT22;10059;59.850;10.454;2022-10-17T08:01:01;6.20;99.90
19799;DHT22;10059;59.850;10.454;2022-10-17T08:03:28;6.30;99.90
19799;DHT22;10059;59.850;10.454;2022-10-17T08:05:59;6.30;99.90
19799;DHT22;10059;59.850;10.454;2022-10-17T08:08:26;6.40;99.90
19799;DHT22;10059;59.850;10.454;2022-10-17T08:10:59;6.20;99.90
19799;DHT22;10059;59.850;10.454;2022-10-17T08:13:26;6.20;99.90
19799;DHT22;10059;59.850;10.454;2022-10-17T08:15:53;6.30;99.90
19799;DHT22;10059;59.850;10.454;2022-10-17T08:18:24;6.40;99.90
19799;DHT22;10059;59.850;10.454;2022-10-17T08:20:50;6.50;99.90
19799;DHT22;10059;59.850;10.454;2022-10-17T08:23:17;6.60;99.90
19799;DHT22;10059;59.850;10.454;2022-10-17T08:25:44;6.70;99.90
19799;DHT22;10059;59.850;10.454;2022-10-17T08:28:12;6.80;99.90
19799;DHT22;10059;59.850;10.454;2022-10-17T08:30:39;6.90;99.90
19799;DHT22;10059;59.850;10.454;2022-10-17T08:33:06;7.00;99.90
19799;DHT22;10059;59.850;10.454;2022-10-17T08:35:33;7.10;99.90
19799;DHT22;10059;59.850;10.454;2022-10-17T08:38:00;7.00;99.90
19799;DHT22;10059;59.850;10.454;2022-10-17T08:40:29;7.20;99.90
19799;DHT22;10059;59.850;10.454;2022-10-17T08:43:27;7.30;99.90
19799;DHT22;10059;59.850;10.454;2022-10-17T08:45:57;7.30;99.90
19799;DHT22;10059;59.850;10.454;2022-10-17T08:48:30;7.50;99.90
19799;DHT22;10059;59.850;10.454;2022-10-17T08:51:00;7.50;99.90
19799;DHT22;10059;59.850;10.454;2022-10-17T08:53:32;7.70;99.90
19799;DHT22;10059;59.850;10.454;2022-10-17T08:56:06;7.60;99.90
19799;DHT22;10059;59.850;10.454;2022-10-17T08:58:38;7.60;99.90
19799;DHT22;10059;59.850;10.454;2022-10-17T09:01:15;7.50;99.90
19799;DHT22;10059;59.850;10.454;2022-10-17T09:03:58;7.60;99.90
19799;DHT22;10059;59.850;10.454;2022-10-17T09:06:31;7.70;99.90
19799;DHT22;10059;59.850;10.454;2022-10-17T09:09:11;7.70;99.90
19799;DHT22;10059;59.850;10.454;2022-10-17T09:11:48;7.70;99.90
19799;DHT22;10059;59.850;10.454;2022-10-17T09:14:33;7.80;99.90
19799;DHT22;10059;59.850;10.454;2022-10-17T09:17:11;7.80;99.90
19799;DHT22;10059;59.850;10.454;2022-10-17T09:19:47;7.80;99.90
19799;DHT22;10059;59.850;10.454;2022-10-17T09:22:20;7.90;99.90
19799;DHT22;10059;59.850;10.454;2022-10-17T09:24:51;7.90;99.90
19799;DHT22;10059;59.850;10.454;2022-10-17T09:27:23;8.00;99.90
19799;DHT22;10059;59.850;10.454;2022-10-17T09:29:57;7.90;99.90
19799;DHT22;10059;59.850;10.454;2022-10-17T09:32:27;7.90;99.90
19799;DHT22;10059;59.850;10.454;2022-10-17T09:34:55;7.90;99.90
19799;DHT22;10059;59.850;10.454;2022-10-17T09:37:25;8.00;99.90
19799;DHT22;10059;59.850;10.454;2022-10-17T09:39:55;8.10;99.90
19799;DHT22;10059;59.850;10.454;2022-10-17T09:42:24;8.10;99.90
19799;DHT22;10059;59.850;10.454;2022-10-17T09:45:04;8.20;99.90
19799;DHT22;10059;59.850;10.454;2022-10-17T09:47:42;8.20;99.90
19799;DHT22;10059;59.850;10.454;2022-10-17T09:50:18;8.20;99.90
19799;DHT22;10059;59.850;10.454;2022-10-17T09:52:47;7.90;99.90
19799;DHT22;10059;59.850;10.454;2022-10-17T09:55:17;8.00;99.90
19799;DHT22;10059;59.850;10.454;2022-10-17T09:57:54;8.00;99.90
19799;DHT22;10059;59.850;10.454;2022-10-17T10:00:23;7.80;99.90
19799;DHT22;10059;59.850;10.454;2022-10-17T10:03:09;7.70;99.90
19799;DHT22;10059;59.850;10.454;2022-10-17T10:05:36;7.80;99.90
19799;DHT22;10059;59.850;10.454;2022-10-17T10:08:10;7.80;99.90
19799;DHT22;10059;59.850;10.454;2022-10-17T10:10:38;7.90;99.90
19799;DHT22;10059;59.850;10.454;2022-10-17T10:13:16;8.00;99.90
19799;DHT22;10059;59.850;10.454;2022-10-17T10:15:47;8.00;99.90
19799;DHT22;10059;59.850;10.454;2022-10-17T10:18:33;8.20;99.90
19799;DHT22;10059;59.850;10.454;2022-10-17T10:21:09;8.00;99.90
19799;DHT22;10059;59.850;10.454;2022-10-17T10:23:37;8.00;99.90
19799;DHT22;10059;59.850;10.454;2022-10-17T10:26:21;8.10;99.90
19799;DHT22;10059;59.850;10.454;2022-10-17T10:28:55;8.20;99.90
19799;DHT22;10059;59.850;10.454;2022-10-17T10:31:32;8.30;99.90
19799;DHT22;10059;59.850;10.454;2022-10-17T10:34:02;8.20;99.90
19799;DHT22;10059;59.850;10.454;2022-10-17T10:36:54;8.10;99.90
19799;DHT22;10059;59.850;10.454;2022-10-17T10:39:35;8.20;99.90
19799;DHT22;10059;59.850;10.454;2022-10-17T10:42:05;8.40;99.90
19799;DHT22;10059;59.850;10.454;2022-10-17T10:44:33;8.30;99.90
19799;DHT22;10059;59.850;10.454;2022-10-17T10:47:08;8.20;99.90
19799;DHT22;10059;59.850;10.454;2022-10-17T10:49:40;8.20;99.90
19799;DHT22;10059;59.850;10.454;2022-10-17T10:52:12;8.20;99.90
19799;DHT22;10059;59.850;10.454;2022-10-17T10:54:45;8.20;99.90
19799;DHT22;10059;59.850;10.454;2022-10-17T10:57:19;8.20;99.90
19799;DHT22;10059;59.850;10.454;2022-10-17T10:59:53;8.10;99.90
19799;DHT22;10059;59.850;10.454;2022-10-17T11:02:31;8.10;99.90
19799;DHT22;10059;59.850;10.454;2022-10-17T11:05:03;8.10;99.90
19799;DHT22;10059;59.850;10.454;2022-10-17T11:07:34;7.90;99.90
19799;DHT22;10059;59.850;10.454;2022-10-17T11:10:09;7.90;99.90
19799;DHT22;10059;59.850;10.454;2022-10-17T11:12:42;7.90;99.90
19799;DHT22;10059;59.850;10.454;2022-10-17T11:15:18;7.90;99.90
19799;DHT22;10059;59.850;10.454;2022-10-17T11:17:54;7.90;99.90
19799;DHT22;10059;59.850;10.454;2022-10-17T11:20:32;7.90;99.90
19799;DHT22;10059;59.850;10.454;2022-10-17T11:23:09;7.90;99.90
19799;DHT22;10059;59.850;10.454;2022-10-17T11:25:44;8.00;99.90
19799;DHT22;10059;59.850;10.454;2022-10-17T11:28:14;7.90;99.90
19799;DHT22;10059;59.850;10.454;2022-10-17T11:30:46;7.70;99.90
19799;DHT22;10059;59.850;10.454;2022-10-17T11:33:21;7.70;99.90
19799;DHT22;10059;59.850;10.454;2022-10-17T11:35:51;7.60;99.90
19799;DHT22;10059;59.850;10.454;2022-10-17T11:38:24;7.50;99.90
19799;DHT22;10059;59.850;10.454;2022-10-17T11:40:55;7.50;99.90
19799;DHT22;10059;59.850;10.454;2022-10-17T11:43:27;7.50;99.90
19799;DHT22;10059;59.850;10.454;2022-10-17T11:45:58;7.60;99.90
19799;DHT22;10059;59.850;10.454;2022-10-17T11:48:30;7.70;99.90
19799;DHT22;10059;59.850;10.454;2022-10-17T11:51:05;7.70;99.90
19799;DHT22;10059;59.850;10.454;2022-10-17T11:53:44;7.70;99.90
19799;DHT22;10059;59.850;10.454;2022-10-17T11:56:15;7.50;99.90
19799;DHT22;10059;59.850;10.454;2022-10-17T11:58:47;7.50;99.90
19799;DHT22;10059;59.850;10.454;2022-10-17T12:01:23;7.50;99.90
19799;DHT22;10059;59.850;10.454;2022-10-17T12:04:16;7.50;99.90
19799;DHT22;10059;59.850;10.454;2022-10-17T12:06:56;7.50;99.90
19799;DHT22;10059;59.850;10.454;2022-10-17T12:09:33;7.40;99.90
19799;DHT22;10059;59.850;10.454;2022-10-17T12:12:06;7.20;99.90
19799;DHT22;10059;59.850;10.454;2022-10-17T12:14:36;7.20;99.90
19799;DHT22;10059;59.850;10.454;2022-10-17T12:17:04;7.20;99.90
19799;DHT22;10059;59.850;10.454;2022-10-17T12:19:35;7.30;99.90
19799;DHT22;10059;59.850;10.454;2022-10-17T12:22:17;7.40;99.90
19799;DHT22;10059;59.850;10.454;2022-10-17T12:24:55;7.40;99.90
19799;DHT22;10059;59.850;10.454;2022-10-17T12:27:33;7.40;99.90
19799;DHT22;10059;59.850;10.454;2022-10-17T12:30:03;7.40;99.90
19799;DHT22;10059;59.850;10.454;2022-10-17T12:32:30;7.50;99.90
19799;DHT22;10059;59.850;10.454;2022-10-17T12:34:59;7.50;99.90
19799;DHT22;10059;59.850;10.454;2022-10-17T12:38:01;7.50;99.90
19799;DHT22;10059;59.850;10.454;2022-10-17T12:41:01;7.60;99.90
19799;DHT22;10059;59.850;10.454;2022-10-17T12:43:50;7.60;99.90
19799;DHT22;10059;59.850;10.454;2022-10-17T12:49:47;7.50;99.90
19799;DHT22;10059;59.850;10.454;2022-10-17T12:52:24;7.60;99.90
19799;DHT22;10059;59.850;10.454;2022-10-17T12:54:57;7.60;99.90
19799;DHT22;10059;59.850;10.454;2022-10-17T12:57:31;7.60;99.90
19799;DHT22;10059;59.850;10.454;2022-10-17T13:00:02;7.60;99.90
19799;DHT22;10059;59.850;10.454;2022-10-17T13:02:30;7.70;99.90
19799;DHT22;10059;59.850;10.454;2022-10-17T13:05:06;7.70;99.90
19799;DHT22;10059;59.850;10.454;2022-10-17T13:07:35;7.80;99.90
19799;DHT22;10059;59.850;10.454;2022-10-17T13:10:18;7.80;99.90
19799;DHT22;10059;59.850;10.454;2022-10-17T13:12:46;7.80;99.90
19799;DHT22;10059;59.850;10.454;2022-10-17T13:15:16;7.80;99.90
19799;DHT22;10059;59.850;10.454;2022-10-17T13:17:44;7.90;99.90
19799;DHT22;10059;59.850;10.454;2022-10-17T13:20:18;8.00;99.90
19799;DHT22;10059;59.850;10.454;2022-10-17T13:22:46;8.00;99.90
19799;DHT22;10059;59.850;10.454;2022-10-17T13:25:16;7.90;99.90
19799;DHT22;10059;59.850;10.454;2022-10-17T13:27:43;7.90;99.90
19799;DHT22;10059;59.850;10.454;2022-10-17T13:30:25;8.00;99.90
19799;DHT22;10059;59.850;10.454;2022-10-17T13:32:53;8.00;99.90
19799;DHT22;10059;59.850;10.454;2022-10-17T13:35:26;8.10;99.90
19799;DHT22;10059;59.850;10.454;2022-10-17T13:37:55;8.10;99.90
19799;DHT22;10059;59.850;10.454;2022-10-17T13:40:24;8.10;99.90
19799;DHT22;10059;59.850;10.454;2022-10-17T13:42:54;8.20;99.90
19799;DHT22;10059;59.850;10.454;2022-10-17T13:45:27;8.30;99.90
19799;DHT22;10059;59.850;10.454;2022-10-17T13:47:55;8.20;99.90
19799;DHT22;10059;59.850;10.454;2022-10-17T13:50:25;8.20;99.90
19799;DHT22;10059;59.850;10.454;2022-10-17T13:53:15;8.10;99.90
19799;DHT22;10059;59.850;10.454;2022-10-17T13:55:51;8.20;99.90
19799;DHT22;10059;59.850;10.454;2022-10-17T13:58:18;8.30;99.90
19799;DHT22;10059;59.850;10.454;2022-10-17T14:00:48;8.30;99.90
19799;DHT22;10059;59.850;10.454;2022-10-17T14:03:18;8.30;99.90
19799;DHT22;10059;59.850;10.454;2022-10-17T14:06:12;8.10;99.90
19799;DHT22;10059;59.850;10.454;2022-10-17T14:08:50;8.20;99.90
19799;DHT22;10059;59.850;10.454;2022-10-17T14:11:22;8.30;99.90
19799;DHT22;10059;59.850;10.454;2022-10-17T14:13:52;8.40;99.90
19799;DHT22;10059;59.850;10.454;2022-10-17T14:16:20;8.40;99.90
19799;DHT22;10059;59.850;10.454;2022-10-17T14:18:49;8.40;99.90
19799;DHT22;10059;59.850;10.454;2022-10-17T14:21:24;8.50;99.90
19799;DHT22;10059;59.850;10.454;2022-10-17T14:24:12;8.50;99.90
19799;DHT22;10059;59.850;10.454;2022-10-17T14:26:47;8.50;99.90
19799;DHT22;10059;59.850;10.454;2022-10-17T14:29:21;8.50;99.90
19799;DHT22;10059;59.850;10.454;2022-10-17T14:31:48;8.60;99.90
19799;DHT22;10059;59.850;10.454;2022-10-17T14:34:21;8.70;99.90
19799;DHT22;10059;59.850;10.454;2022-10-17T14:36:51;8.60;99.90
19799;DHT22;10059;59.850;10.454;2022-10-17T14:39:22;8.60;99.90
19799;DHT22;10059;59.850;10.454;2022-10-17T14:41:50;8.50;99.90
19799;DHT22;10059;59.850;10.454;2022-10-17T14:44:20;8.30;99.90
19799;DHT22;10059;59.850;10.454;2022-10-17T14:46:52;8.50;99.90
19799;DHT22;10059;59.850;10.454;2022-10-17T14:49:32;8.40;99.90
19799;DHT22;10059;59.850;10.454;2022-10-17T14:52:11;8.30;99.90
19799;DHT22;10059;59.850;10.454;2022-10-17T14:54:39;8.30;99.90
19799;DHT22;10059;59.850;10.454;2022-10-17T14:57:16;8.20;99.90
19799;DHT22;10059;59.850;10.454;2022-10-17T14:59:43;8.30;99.90
19799;DHT22;10059;59.850;10.454;2022-10-17T15:02:10;8.30;99.90
19799;DHT22;10059;59.850;10.454;2022-10-17T15:04:37;8.40;99.90
19799;DHT22;10059;59.850;10.454;2022-10-17T15:07:04;8.30;99.90
19799;DHT22;10059;59.850;10.454;2022-10-17T15:09:31;8.30;99.90
19799;DHT22;10059;59.850;10.454;2022-10-17T15:12:01;8.20;99.90
19799;DHT22;10059;59.850;10.454;2022-10-17T15:14:28;8.20;99.90
19799;DHT22;10059;59.850;10.454;2022-10-17T15:16:55;8.20;99.90
19799;DHT22;10059;59.850;10.454;2022-10-17T15:19:22;8.30;99.90
19799;DHT22;10059;59.850;10.454;2022-10-17T15:21:49;8.30;99.90
19799;DHT22;10059;59.850;10.454;2022-10-17T15:24:16;8.30;99.90
19799;DHT22;10059;59.850;10.454;2022-10-17T15:26:43;8.10;99.90
19799;DHT22;10059;59.850;10.454;2022-10-17T15:29:13;7.90;99.90
19799;DHT22;10059;59.850;10.454;2022-10-17T15:31:41;7.90;99.90
19799;DHT22;10059;59.850;10.454;2022-10-17T15:34:07;7.70;99.90
19799;DHT22;10059;59.850;10.454;2022-10-17T15:36:38;7.70;99.90
19799;DHT22;10059;59.850;10.454;2022-10-17T15:39:06;7.70;99.90
19799;DHT22;10059;59.850;10.454;2022-10-17T15:41:33;7.70;99.90
19799;DHT22;10059;59.850;10.454;2022-10-17T15:44:00;7.80;99.90
19799;DHT22;10059;59.850;10.454;2022-10-17T15:46:32;7.90;99.90
19799;DHT22;10059;59.850;10.454;2022-10-17T15:49:01;8.00;99.90
19799;DHT22;10059;59.850;10.454;2022-10-17T15:51:28;7.90;99.90
19799;DHT22;10059;59.850;10.454;2022-10-17T15:53:55;7.90;99.90
19799;DHT22;10059;59.850;10.454;2022-10-17T15:56:28;8.00;99.90
19799;DHT22;10059;59.850;10.454;2022-10-17T15:58:56;8.20;99.90